sensor_id;sensor_type;location;lat;lon;timestamp;P1;durP1;ratioP1;P2;durP2;ratioP2
73132;SDS011;61320;52.008;4.530;2023-09-12T00:00:49;23.84;;;23.78;;
73132;SDS011;61320;52.008;4.530;2023-09-12T00:03:17;23.23;;;23.21;;
73132;SDS011;61320;52.008;4.530;2023-09-12T00:05:54;23.59;;;23.54;;
73132;SDS011;61320;52.008;4.530;2023-09-12T00:08:21;24.27;;;24.27;;
73132;SDS011;61320;52.008;4.530;2023-09-12T00:11:04;24.80;;;24.76;;
73132;SDS011;61320;52.008;4.530;2023-09-12T00:13:37;24.24;;;24.24;;
73132;SDS011;61320;52.008;4.530;2023-09-12T00:16:04;24.72;;;24.70;;
73132;SDS011;61320;52.008;4.530;2023-09-12T00:18:30;25.31;;;25.13;;
73132;SDS011;61320;52.008;4.530;2023-09-12T00:20:56;23.27;;;23.27;;
73132;SDS011;61320;52.008;4.530;2023-09-12T00:23:22;24.28;;;24.01;;
73132;SDS011;61320;52.008;4.530;2023-09-12T00:25:51;25.03;;;24.83;;
73132;SDS011;61320;52.008;4.530;2023-09-12T00:28:17;24.56;;;24.43;;
73132;SDS011;61320;52.008;4.530;2023-09-12T00:30:43;24.66;;;24.28;;
73132;SDS011;61320;52.008;4.530;2023-09-12T00:33:09;23.83;;;23.83;;
73132;SDS011;61320;52.008;4.530;2023-09-12T00:35:34;24.41;;;24.38;;
73132;SDS011;61320;52.008;4.530;2023-09-12T00:37:59;25.59;;;25.11;;
73132;SDS011;61320;52.008;4.530;2023-09-12T00:40:25;24.54;;;24.43;;
73132;SDS011;61320;52.008;4.530;2023-09-12T00:42:51;25.07;;;25.02;;
73132;SDS011;61320;52.008;4.530;2023-09-12T00:45:16;27.53;;;27.23;;
73132;SDS011;61320;52.008;4.530;2023-09-12T00:47:42;29.85;;;29.32;;
73132;SDS011;61320;52.008;4.530;2023-09-12T00:50:08;27.60;;;27.07;;
73132;SDS011;61320;52.008;4.530;2023-09-12T00:52:35;31.29;;;30.46;;
73132;SDS011;61320;52.008;4.530;2023-09-12T00:55:04;30.36;;;30.14;;
73132;SDS011;61320;52.008;4.530;2023-09-12T00:57:30;32.13;;;31.81;;
73132;SDS011;61320;52.008;4.530;2023-09-12T00:59:59;32.44;;;32.08;;
73132;SDS011;61320;52.008;4.530;2023-09-12T01:02:36;32.19;;;31.64;;
73132;SDS011;61320;52.008;4.530;2023-09-12T01:05:02;32.27;;;31.79;;
73132;SDS011;61320;52.008;4.530;2023-09-12T01:07:28;33.96;;;33.29;;
73132;SDS011;61320;52.008;4.530;2023-09-12T01:09:54;36.16;;;35.43;;
73132;SDS011;61320;52.008;4.530;2023-09-12T01:12:19;35.69;;;35.15;;
73132;SDS011;61320;52.008;4.530;2023-09-12T01:14:45;34.96;;;34.55;;
73132;SDS011;61320;52.008;4.530;2023-09-12T01:17:11;34.75;;;34.20;;
73132;SDS011;61320;52.008;4.530;2023-09-12T01:19:36;32.91;;;32.45;;
73132;SDS011;61320;52.008;4.530;2023-09-12T01:27:26;33.07;;;32.42;;
73132;SDS011;61320;52.008;4.530;2023-09-12T01:29:59;30.79;;;30.26;;
73132;SDS011;61320;52.008;4.530;2023-09-12T01:32:31;32.14;;;31.50;;
73132;SDS011;61320;52.008;4.530;2023-09-12T01:34:58;30.60;;;30.12;;
73132;SDS011;61320;52.008;4.530;2023-09-12T01:37:24;29.02;;;28.90;;
73132;SDS011;61320;52.008;4.530;2023-09-12T01:39:51;27.94;;;27.62;;
73132;SDS011;61320;52.008;4.530;2023-09-12T01:42:18;27.38;;;26.92;;
73132;SDS011;61320;52.008;4.530;2023-09-12T01:44:46;26.68;;;26.59;;
73132;SDS011;61320;52.008;4.530;2023-09-12T01:47:16;26.88;;;26.67;;
73132;SDS011;61320;52.008;4.530;2023-09-12T01:49:45;27.09;;;26.56;;
73132;SDS011;61320;52.008;4.530;2023-09-12T01:52:14;28.70;;;28.07;;
73132;SDS011;61320;52.008;4.530;2023-09-12T01:54:41;26.79;;;26.51;;
73132;SDS011;61320;52.008;4.530;2023-09-12T01:57:08;27.40;;;26.96;;
73132;SDS011;61320;52.008;4.530;2023-09-12T01:59:34;27.24;;;26.64;;
73132;SDS011;61320;52.008;4.530;2023-09-12T02:02:00;28.45;;;27.79;;
73132;SDS011;61320;52.008;4.530;2023-09-12T02:04:25;27.45;;;27.16;;
73132;SDS011;61320;52.008;4.530;2023-09-12T02:06:51;28.42;;;28.15;;
73132;SDS011;61320;52.008;4.530;2023-09-12T02:09:16;29.52;;;28.95;;
73132;SDS011;61320;52.008;4.530;2023-09-12T02:11:42;29.02;;;28.33;;
73132;SDS011;61320;52.008;4.530;2023-09-12T02:14:07;28.98;;;28.28;;
73132;SDS011;61320;52.008;4.530;2023-09-12T02:16:35;27.30;;;26.64;;
73132;SDS011;61320;52.008;4.530;2023-09-12T02:19:03;27.05;;;26.53;;
73132;SDS011;61320;52.008;4.530;2023-09-12T02:21:28;27.21;;;26.72;;
73132;SDS011;61320;52.008;4.530;2023-09-12T02:23:54;28.61;;;28.17;;
73132;SDS011;61320;52.008;4.530;2023-09-12T02:26:19;26.96;;;26.29;;
73132;SDS011;61320;52.008;4.530;2023-09-12T02:28:45;28.63;;;27.70;;
73132;SDS011;61320;52.008;4.530;2023-09-12T02:31:11;26.99;;;26.54;;
73132;SDS011;61320;52.008;4.530;2023-09-12T02:33:37;27.45;;;27.00;;
73132;SDS011;61320;52.008;4.530;2023-09-12T02:36:04;26.41;;;26.12;;
73132;SDS011;61320;52.008;4.530;2023-09-12T02:38:30;28.14;;;27.53;;
73132;SDS011;61320;52.008;4.530;2023-09-12T02:40:56;28.16;;;27.76;;
73132;SDS011;61320;52.008;4.530;2023-09-12T02:43:21;27.97;;;27.54;;
73132;SDS011;61320;52.008;4.530;2023-09-12T02:45:47;28.23;;;27.45;;
73132;SDS011;61320;52.008;4.530;2023-09-12T02:48:12;28.70;;;28.23;;
73132;SDS011;61320;52.008;4.530;2023-09-12T02:50:38;29.55;;;28.83;;
73132;SDS011;61320;52.008;4.530;2023-09-12T02:53:03;27.90;;;27.57;;
73132;SDS011;61320;52.008;4.530;2023-09-12T02:55:29;28.62;;;28.33;;
73132;SDS011;61320;52.008;4.530;2023-09-12T02:57:54;28.85;;;28.48;;
73132;SDS011;61320;52.008;4.530;2023-09-12T03:00:20;27.19;;;26.60;;
73132;SDS011;61320;52.008;4.530;2023-09-12T03:02:45;27.94;;;27.40;;
73132;SDS011;61320;52.008;4.530;2023-09-12T03:05:11;27.15;;;26.52;;
73132;SDS011;61320;52.008;4.530;2023-09-12T03:07:36;26.85;;;26.19;;
73132;SDS011;61320;52.008;4.530;2023-09-12T03:10:02;27.36;;;26.78;;
73132;SDS011;61320;52.008;4.530;2023-09-12T03:12:28;27.53;;;27.08;;
73132;SDS011;61320;52.008;4.530;2023-09-12T03:14:54;27.41;;;26.70;;
73132;SDS011;61320;52.008;4.530;2023-09-12T03:17:20;26.98;;;26.41;;
73132;SDS011;61320;52.008;4.530;2023-09-12T03:19:45;26.42;;;26.08;;
73132;SDS011;61320;52.008;4.530;2023-09-12T03:22:11;25.86;;;25.39;;
73132;SDS011;61320;52.008;4.530;2023-09-12T03:24:36;25.87;;;25.57;;
73132;SDS011;61320;52.008;4.530;2023-09-12T03:27:02;25.29;;;24.88;;
73132;SDS011;61320;52.008;4.530;2023-09-12T03:29:28;26.66;;;26.18;;
73132;SDS011;61320;52.008;4.530;2023-09-12T03:31:53;26.02;;;25.56;;
73132;SDS011;61320;52.008;4.530;2023-09-12T03:34:19;26.09;;;25.70;;
73132;SDS011;61320;52.008;4.530;2023-09-12T03:36:44;25.02;;;24.68;;
73132;SDS011;61320;52.008;4.530;2023-09-12T03:39:09;24.98;;;24.67;;
73132;SDS011;61320;52.008;4.530;2023-09-12T03:41:38;24.34;;;24.18;;
73132;SDS011;61320;52.008;4.530;2023-09-12T03:44:04;25.36;;;24.93;;
73132;SDS011;61320;52.008;4.530;2023-09-12T03:46:30;26.42;;;25.98;;
73132;SDS011;61320;52.008;4.530;2023-09-12T03:48:55;25.74;;;25.45;;
73132;SDS011;61320;52.008;4.530;2023-09-12T03:51:21;24.72;;;24.28;;
73132;SDS011;61320;52.008;4.530;2023-09-12T03:53:46;25.60;;;25.43;;
73132;SDS011;61320;52.008;4.530;2023-09-12T03:56:13;25.74;;;25.16;;
73132;SDS011;61320;52.008;4.530;2023-09-12T03:58:40;25.07;;;24.77;;
73132;SDS011;61320;52.008;4.530;2023-09-12T04:01:05;25.81;;;25.41;;
73132;SDS011;61320;52.008;4.530;2023-09-12T04:03:31;26.13;;;25.63;;
73132;SDS011;61320;52.008;4.530;2023-09-12T04:05:56;26.74;;;26.36;;
73132;SDS011;61320;52.008;4.530;2023-09-12T04:08:22;25.74;;;25.37;;
73132;SDS011;61320;52.008;4.530;2023-09-12T04:10:47;25.38;;;25.26;;
73132;SDS011;61320;52.008;4.530;2023-09-12T04:13:13;27.01;;;26.60;;
73132;SDS011;61320;52.008;4.530;2023-09-12T04:15:38;26.42;;;26.24;;
73132;SDS011;61320;52.008;4.530;2023-09-12T04:18:04;27.63;;;27.14;;
73132;SDS011;61320;52.008;4.530;2023-09-12T04:20:30;28.17;;;27.67;;
73132;SDS011;61320;52.008;4.530;2023-09-12T04:22:55;28.98;;;28.44;;
73132;SDS011;61320;52.008;4.530;2023-09-12T04:25:21;28.93;;;28.53;;
73132;SDS011;61320;52.008;4.530;2023-09-12T04:27:46;26.37;;;26.17;;
73132;SDS011;61320;52.008;4.530;2023-09-12T04:30:12;28.15;;;27.72;;
73132;SDS011;61320;52.008;4.530;2023-09-12T04:32:38;29.35;;;28.71;;
73132;SDS011;61320;52.008;4.530;2023-09-12T04:35:03;29.04;;;28.51;;
73132;SDS011;61320;52.008;4.530;2023-09-12T04:37:29;28.24;;;27.76;;
73132;SDS011;61320;52.008;4.530;2023-09-12T04:39:54;28.53;;;28.01;;
73132;SDS011;61320;52.008;4.530;2023-09-12T04:42:21;30.24;;;29.64;;
73132;SDS011;61320;52.008;4.530;2023-09-12T04:44:46;28.46;;;27.85;;
73132;SDS011;61320;52.008;4.530;2023-09-12T04:47:12;28.78;;;28.16;;
73132;SDS011;61320;52.008;4.530;2023-09-12T04:49:38;28.20;;;27.58;;
73132;SDS011;61320;52.008;4.530;2023-09-12T04:52:04;27.11;;;26.69;;
73132;SDS011;61320;52.008;4.530;2023-09-12T04:54:31;30.13;;;29.56;;
73132;SDS011;61320;52.008;4.530;2023-09-12T04:56:56;30.06;;;29.57;;
73132;SDS011;61320;52.008;4.530;2023-09-12T04:59:22;28.90;;;28.45;;
73132;SDS011;61320;52.008;4.530;2023-09-12T05:01:50;29.03;;;28.59;;
73132;SDS011;61320;52.008;4.530;2023-09-12T05:04:16;27.94;;;27.41;;
73132;SDS011;61320;52.008;4.530;2023-09-12T05:06:41;30.10;;;29.46;;
73132;SDS011;61320;52.008;4.530;2023-09-12T05:09:07;30.95;;;30.20;;
73132;SDS011;61320;52.008;4.530;2023-09-12T05:11:34;30.87;;;30.12;;
73132;SDS011;61320;52.008;4.530;2023-09-12T05:14:00;33.41;;;32.48;;
73132;SDS011;61320;52.008;4.530;2023-09-12T05:16:28;33.34;;;32.29;;
73132;SDS011;61320;52.008;4.530;2023-09-12T05:18:54;31.67;;;30.97;;
73132;SDS011;61320;52.008;4.530;2023-09-12T05:21:22;32.02;;;31.18;;
73132;SDS011;61320;52.008;4.530;2023-09-12T05:23:48;33.90;;;32.98;;
73132;SDS011;61320;52.008;4.530;2023-09-12T05:26:14;32.75;;;31.90;;
73132;SDS011;61320;52.008;4.530;2023-09-12T05:28:40;33.19;;;32.29;;
73132;SDS011;61320;52.008;4.530;2023-09-12T05:31:05;32.02;;;31.13;;
73132;SDS011;61320;52.008;4.530;2023-09-12T05:33:31;31.34;;;30.47;;
73132;SDS011;61320;52.008;4.530;2023-09-12T05:35:56;33.03;;;31.91;;
73132;SDS011;61320;52.008;4.530;2023-09-12T05:38:22;32.67;;;31.75;;
73132;SDS011;61320;52.008;4.530;2023-09-12T05:40:48;33.70;;;32.55;;
73132;SDS011;61320;52.008;4.530;2023-09-12T05:43:15;36.05;;;34.48;;
73132;SDS011;61320;52.008;4.530;2023-09-12T05:45:41;35.58;;;33.99;;
73132;SDS011;61320;52.008;4.530;2023-09-12T05:48:07;34.60;;;33.39;;
73132;SDS011;61320;52.008;4.530;2023-09-12T05:50:32;34.61;;;33.46;;
73132;SDS011;61320;52.008;4.530;2023-09-12T05:52:58;33.41;;;32.26;;
73132;SDS011;61320;52.008;4.530;2023-09-12T05:55:23;33.84;;;32.95;;
73132;SDS011;61320;52.008;4.530;2023-09-12T05:57:50;33.59;;;32.51;;
73132;SDS011;61320;52.008;4.530;2023-09-12T06:00:21;36.28;;;35.04;;
73132;SDS011;61320;52.008;4.530;2023-09-12T06:02:47;34.92;;;33.65;;
73132;SDS011;61320;52.008;4.530;2023-09-12T06:05:13;35.60;;;34.71;;
73132;SDS011;61320;52.008;4.530;2023-09-12T06:07:40;37.74;;;36.43;;
73132;SDS011;61320;52.008;4.530;2023-09-12T06:10:06;36.94;;;35.56;;
73132;SDS011;61320;52.008;4.530;2023-09-12T06:12:33;39.68;;;37.92;;
73132;SDS011;61320;52.008;4.530;2023-09-12T06:15:01;39.29;;;38.08;;
73132;SDS011;61320;52.008;4.530;2023-09-12T06:17:27;37.98;;;36.77;;
73132;SDS011;61320;52.008;4.530;2023-09-12T06:19:54;37.64;;;36.27;;
73132;SDS011;61320;52.008;4.530;2023-09-12T06:22:20;38.15;;;36.66;;
73132;SDS011;61320;52.008;4.530;2023-09-12T06:24:48;39.32;;;37.81;;
73132;SDS011;61320;52.008;4.530;2023-09-12T06:27:16;38.22;;;36.97;;
73132;SDS011;61320;52.008;4.530;2023-09-12T06:29:44;38.04;;;36.84;;
73132;SDS011;61320;52.008;4.530;2023-09-12T06:32:14;39.56;;;38.10;;
73132;SDS011;61320;52.008;4.530;2023-09-12T06:34:40;37.49;;;36.23;;
73132;SDS011;61320;52.008;4.530;2023-09-12T06:37:06;40.08;;;38.63;;
73132;SDS011;61320;52.008;4.530;2023-09-12T06:39:32;36.29;;;35.20;;
73132;SDS011;61320;52.008;4.530;2023-09-12T06:41:57;38.59;;;37.26;;
73132;SDS011;61320;52.008;4.530;2023-09-12T06:44:23;39.69;;;38.33;;
73132;SDS011;61320;52.008;4.530;2023-09-12T06:46:48;38.08;;;36.82;;
73132;SDS011;61320;52.008;4.530;2023-09-12T06:49:14;41.46;;;39.84;;
73132;SDS011;61320;52.008;4.530;2023-09-12T06:51:39;41.16;;;39.06;;
73132;SDS011;61320;52.008;4.530;2023-09-12T06:54:05;42.20;;;40.40;;
73132;SDS011;61320;52.008;4.530;2023-09-12T06:56:30;43.12;;;41.44;;
73132;SDS011;61320;52.008;4.530;2023-09-12T06:58:56;43.39;;;41.55;;
73132;SDS011;61320;52.008;4.530;2023-09-12T07:01:22;43.53;;;41.39;;
73132;SDS011;61320;52.008;4.530;2023-09-12T07:03:48;42.71;;;41.10;;
73132;SDS011;61320;52.008;4.530;2023-09-12T07:06:17;43.09;;;41.52;;
73132;SDS011;61320;52.008;4.530;2023-09-12T07:08:42;42.98;;;41.61;;
73132;SDS011;61320;52.008;4.530;2023-09-12T07:11:08;45.13;;;43.02;;
73132;SDS011;61320;52.008;4.530;2023-09-12T07:13:33;46.27;;;44.13;;
73132;SDS011;61320;52.008;4.530;2023-09-12T07:15:59;44.38;;;42.76;;
73132;SDS011;61320;52.008;4.530;2023-09-12T07:18:28;45.31;;;43.72;;
73132;SDS011;61320;52.008;4.530;2023-09-12T07:21:00;44.76;;;43.14;;
73132;SDS011;61320;52.008;4.530;2023-09-12T07:23:27;45.69;;;43.70;;
73132;SDS011;61320;52.008;4.530;2023-09-12T07:25:54;45.57;;;43.42;;
73132;SDS011;61320;52.008;4.530;2023-09-12T07:28:22;44.24;;;42.59;;
73132;SDS011;61320;52.008;4.530;2023-09-12T07:30:48;43.55;;;42.28;;
73132;SDS011;61320;52.008;4.530;2023-09-12T07:33:14;42.84;;;41.47;;
73132;SDS011;61320;52.008;4.530;2023-09-12T07:35:40;41.19;;;40.24;;
73132;SDS011;61320;52.008;4.530;2023-09-12T07:38:05;41.72;;;40.86;;
73132;SDS011;61320;52.008;4.530;2023-09-12T07:40:31;39.12;;;38.25;;
73132;SDS011;61320;52.008;4.530;2023-09-12T07:42:56;38.43;;;37.34;;
73132;SDS011;61320;52.008;4.530;2023-09-12T07:45:22;39.12;;;38.46;;
73132;SDS011;61320;52.008;4.530;2023-09-12T07:47:48;39.53;;;38.88;;
73132;SDS011;61320;52.008;4.530;2023-09-12T07:50:13;39.34;;;38.32;;
73132;SDS011;61320;52.008;4.530;2023-09-12T07:52:39;39.24;;;38.19;;
73132;SDS011;61320;52.008;4.530;2023-09-12T07:55:05;39.04;;;38.20;;
73132;SDS011;61320;52.008;4.530;2023-09-12T07:57:32;38.08;;;37.18;;
73132;SDS011;61320;52.008;4.530;2023-09-12T07:59:58;37.91;;;37.07;;
73132;SDS011;61320;52.008;4.530;2023-09-12T08:02:24;38.20;;;37.59;;
73132;SDS011;61320;52.008;4.530;2023-09-12T08:04:49;37.80;;;37.08;;
73132;SDS011;61320;52.008;4.530;2023-09-12T08:07:21;36.91;;;36.42;;
73132;SDS011;61320;52.008;4.530;2023-09-12T08:09:48;36.37;;;35.81;;
73132;SDS011;61320;52.008;4.530;2023-09-12T08:12:22;37.47;;;36.75;;
73132;SDS011;61320;52.008;4.530;2023-09-12T08:14:50;38.80;;;37.97;;
73132;SDS011;61320;52.008;4.530;2023-09-12T08:17:16;38.55;;;37.95;;
73132;SDS011;61320;52.008;4.530;2023-09-12T08:19:42;38.78;;;38.04;;
73132;SDS011;61320;52.008;4.530;2023-09-12T08:22:08;39.83;;;38.99;;
73132;SDS011;61320;52.008;4.530;2023-09-12T08:24:35;39.43;;;38.80;;
73132;SDS011;61320;52.008;4.530;2023-09-12T08:27:01;39.67;;;38.81;;
73132;SDS011;61320;52.008;4.530;2023-09-12T08:29:27;39.05;;;38.42;;
73132;SDS011;61320;52.008;4.530;2023-09-12T08:31:53;40.04;;;39.58;;
73132;SDS011;61320;52.008;4.530;2023-09-12T08:34:20;40.31;;;39.55;;
73132;SDS011;61320;52.008;4.530;2023-09-12T08:36:46;41.06;;;40.33;;
73132;SDS011;61320;52.008;4.530;2023-09-12T08:39:14;40.92;;;40.50;;
73132;SDS011;61320;52.008;4.530;2023-09-12T08:41:41;41.08;;;40.70;;
73132;SDS011;61320;52.008;4.530;2023-09-12T08:44:07;41.29;;;40.81;;
73132;SDS011;61320;52.008;4.530;2023-09-12T08:46:34;41.57;;;41.07;;
73132;SDS011;61320;52.008;4.530;2023-09-12T08:49:02;40.06;;;39.58;;
73132;SDS011;61320;52.008;4.530;2023-09-12T08:51:31;40.11;;;39.34;;
73132;SDS011;61320;52.008;4.530;2023-09-12T08:53:57;39.55;;;39.38;;
73132;SDS011;61320;52.008;4.530;2023-09-12T08:56:23;39.00;;;38.94;;
73132;SDS011;61320;52.008;4.530;2023-09-12T08:58:49;38.79;;;38.73;;
73132;SDS011;61320;52.008;4.530;2023-09-12T09:01:16;38.88;;;38.54;;
73132;SDS011;61320;52.008;4.530;2023-09-12T09:03:44;38.51;;;38.12;;
73132;SDS011;61320;52.008;4.530;2023-09-12T09:06:11;37.01;;;36.95;;
73132;SDS011;61320;52.008;4.530;2023-09-12T09:08:39;38.25;;;38.04;;
73132;SDS011;61320;52.008;4.530;2023-09-12T09:11:07;37.38;;;37.31;;
73132;SDS011;61320;52.008;4.530;2023-09-12T09:13:32;36.92;;;36.91;;
73132;SDS011;61320;52.008;4.530;2023-09-12T09:21:35;37.45;;;37.45;;
73132;SDS011;61320;52.008;4.530;2023-09-12T09:24:03;35.84;;;35.84;;
73132;SDS011;61320;52.008;4.530;2023-09-12T09:26:40;34.38;;;34.38;;
73132;SDS011;61320;52.008;4.530;2023-09-12T09:29:08;31.99;;;31.99;;
73132;SDS011;61320;52.008;4.530;2023-09-12T09:31:35;28.26;;;28.26;;
73132;SDS011;61320;52.008;4.530;2023-09-12T09:34:09;27.82;;;27.82;;
73132;SDS011;61320;52.008;4.530;2023-09-12T09:36:43;27.80;;;27.80;;
73132;SDS011;61320;52.008;4.530;2023-09-12T09:39:12;27.26;;;27.26;;
73132;SDS011;61320;52.008;4.530;2023-09-12T09:41:38;28.19;;;28.19;;
73132;SDS011;61320;52.008;4.530;2023-09-12T09:44:07;29.99;;;29.99;;
73132;SDS011;61320;52.008;4.530;2023-09-12T09:46:34;31.41;;;31.41;;
73132;SDS011;61320;52.008;4.530;2023-09-12T09:49:02;31.48;;;31.48;;
73132;SDS011;61320;52.008;4.530;2023-09-12T09:51:27;31.17;;;31.17;;
73132;SDS011;61320;52.008;4.530;2023-09-12T09:53:57;33.09;;;33.08;;
73132;SDS011;61320;52.008;4.530;2023-09-12T09:56:24;36.03;;;35.99;;
73132;SDS011;61320;52.008;4.530;2023-09-12T09:58:54;34.31;;;34.21;;
73132;SDS011;61320;52.008;4.530;2023-09-12T10:01:21;30.62;;;30.56;;
73132;SDS011;61320;52.008;4.530;2023-09-12T10:03:52;31.81;;;31.77;;
73132;SDS011;61320;52.008;4.530;2023-09-12T10:06:22;35.02;;;35.01;;
73132;SDS011;61320;52.008;4.530;2023-09-12T10:08:52;32.33;;;32.25;;
73132;SDS011;61320;52.008;4.530;2023-09-12T10:11:20;32.89;;;32.89;;
73132;SDS011;61320;52.008;4.530;2023-09-12T10:13:49;34.04;;;33.98;;
73132;SDS011;61320;52.008;4.530;2023-09-12T10:16:29;37.75;;;37.75;;
73132;SDS011;61320;52.008;4.530;2023-09-12T10:18:58;38.09;;;38.06;;
73132;SDS011;61320;52.008;4.530;2023-09-12T10:21:36;39.75;;;39.60;;
73132;SDS011;61320;52.008;4.530;2023-09-12T10:24:06;39.20;;;39.07;;
73132;SDS011;61320;52.008;4.530;2023-09-12T10:26:34;39.35;;;39.35;;
73132;SDS011;61320;52.008;4.530;2023-09-12T10:29:00;40.89;;;40.76;;
73132;SDS011;61320;52.008;4.530;2023-09-12T10:31:27;43.14;;;43.10;;
73132;SDS011;61320;52.008;4.530;2023-09-12T10:33:55;40.32;;;40.21;;
73132;SDS011;61320;52.008;4.530;2023-09-12T10:36:22;40.92;;;40.92;;
73132;SDS011;61320;52.008;4.530;2023-09-12T10:38:51;39.73;;;39.72;;
73132;SDS011;61320;52.008;4.530;2023-09-12T10:41:16;38.90;;;38.90;;
73132;SDS011;61320;52.008;4.530;2023-09-12T10:43:46;39.79;;;39.71;;
73132;SDS011;61320;52.008;4.530;2023-09-12T10:46:17;39.29;;;39.28;;
73132;SDS011;61320;52.008;4.530;2023-09-12T10:48:43;39.05;;;39.05;;
73132;SDS011;61320;52.008;4.530;2023-09-12T10:51:09;40.40;;;40.40;;
73132;SDS011;61320;52.008;4.530;2023-09-12T10:53:37;40.09;;;40.09;;
73132;SDS011;61320;52.008;4.530;2023-09-12T11:01:43;38.74;;;38.63;;
73132;SDS011;61320;52.008;4.530;2023-09-12T11:06:48;38.85;;;38.84;;
73132;SDS011;61320;52.008;4.530;2023-09-12T11:11:42;39.75;;;39.65;;
73132;SDS011;61320;52.008;4.530;2023-09-12T11:14:12;39.21;;;39.18;;
73132;SDS011;61320;52.008;4.530;2023-09-12T11:16:40;38.22;;;38.22;;
73132;SDS011;61320;52.008;4.530;2023-09-12T11:19:19;37.54;;;37.54;;
73132;SDS011;61320;52.008;4.530;2023-09-12T11:21:53;35.28;;;35.21;;
73132;SDS011;61320;52.008;4.530;2023-09-12T11:24:19;31.31;;;31.31;;
73132;SDS011;61320;52.008;4.530;2023-09-12T11:27:19;30.11;;;30.11;;
73132;SDS011;61320;52.008;4.530;2023-09-12T11:29:38;31.42;;;31.42;;
73132;SDS011;61320;52.008;4.530;2023-09-12T11:32:05;26.65;;;26.65;;
73132;SDS011;61320;52.008;4.530;2023-09-12T11:34:36;30.29;;;30.29;;
73132;SDS011;61320;52.008;4.530;2023-09-12T11:37:03;34.54;;;34.54;;
73132;SDS011;61320;52.008;4.530;2023-09-12T11:39:31;33.90;;;33.90;;
73132;SDS011;61320;52.008;4.530;2023-09-12T11:41:58;35.39;;;35.39;;
73132;SDS011;61320;52.008;4.530;2023-09-12T11:44:25;36.35;;;36.32;;
73132;SDS011;61320;52.008;4.530;2023-09-12T11:46:52;40.37;;;40.37;;
73132;SDS011;61320;52.008;4.530;2023-09-12T11:49:19;41.63;;;41.00;;
73132;SDS011;61320;52.008;4.530;2023-09-12T11:51:46;28.91;;;28.91;;
73132;SDS011;61320;52.008;4.530;2023-09-12T11:54:19;27.47;;;27.47;;
73132;SDS011;61320;52.008;4.530;2023-09-12T11:56:49;27.66;;;27.66;;
73132;SDS011;61320;52.008;4.530;2023-09-12T11:59:21;26.80;;;26.80;;
73132;SDS011;61320;52.008;4.530;2023-09-12T12:01:51;25.73;;;25.73;;
73132;SDS011;61320;52.008;4.530;2023-09-12T12:04:20;25.39;;;25.39;;
73132;SDS011;61320;52.008;4.530;2023-09-12T12:06:46;25.59;;;25.59;;
73132;SDS011;61320;52.008;4.530;2023-09-12T12:09:12;25.93;;;25.93;;
73132;SDS011;61320;52.008;4.530;2023-09-12T12:11:39;26.01;;;26.01;;
73132;SDS011;61320;52.008;4.530;2023-09-12T12:16:37;22.41;;;22.41;;
73132;SDS011;61320;52.008;4.530;2023-09-12T12:19:02;20.40;;;20.40;;
73132;SDS011;61320;52.008;4.530;2023-09-12T12:21:28;16.83;;;16.83;;
73132;SDS011;61320;52.008;4.530;2023-09-12T12:24:00;16.01;;;16.01;;
73132;SDS011;61320;52.008;4.530;2023-09-12T12:26:28;15.00;;;15.00;;
73132;SDS011;61320;52.008;4.530;2023-09-12T12:28:55;14.16;;;14.16;;
73132;SDS011;61320;52.008;4.530;2023-09-12T12:31:21;13.10;;;13.10;;
73132;SDS011;61320;52.008;4.530;2023-09-12T12:33:50;12.63;;;12.63;;
73132;SDS011;61320;52.008;4.530;2023-09-12T12:36:18;12.90;;;12.90;;
73132;SDS011;61320;52.008;4.530;2023-09-12T12:38:45;13.45;;;13.45;;
73132;SDS011;61320;52.008;4.530;2023-09-12T12:41:26;12.55;;;12.55;;
73132;SDS011;61320;52.008;4.530;2023-09-12T12:43:57;13.06;;;13.06;;
73132;SDS011;61320;52.008;4.530;2023-09-12T12:46:26;13.17;;;13.17;;
73132;SDS011;61320;52.008;4.530;2023-09-12T12:48:52;12.73;;;12.73;;
73132;SDS011;61320;52.008;4.530;2023-09-12T12:51:25;12.40;;;12.40;;
73132;SDS011;61320;52.008;4.530;2023-09-12T12:53:52;11.50;;;11.50;;
73132;SDS011;61320;52.008;4.530;2023-09-12T12:56:21;10.14;;;10.14;;
73132;SDS011;61320;52.008;4.530;2023-09-12T12:58:58;10.16;;;10.16;;
73132;SDS011;61320;52.008;4.530;2023-09-12T13:01:28;8.76;;;8.76;;
73132;SDS011;61320;52.008;4.530;2023-09-12T13:03:54;8.11;;;8.11;;
73132;SDS011;61320;52.008;4.530;2023-09-12T13:06:21;7.83;;;7.83;;
73132;SDS011;61320;52.008;4.530;2023-09-12T13:08:48;7.76;;;7.76;;
73132;SDS011;61320;52.008;4.530;2023-09-12T13:11:15;7.63;;;7.63;;
73132;SDS011;61320;52.008;4.530;2023-09-12T13:13:42;7.60;;;7.60;;
73132;SDS011;61320;52.008;4.530;2023-09-12T13:16:14;8.24;;;8.24;;
73132;SDS011;61320;52.008;4.530;2023-09-12T13:18:40;8.75;;;8.75;;
73132;SDS011;61320;52.008;4.530;2023-09-12T13:21:06;8.60;;;8.60;;
73132;SDS011;61320;52.008;4.530;2023-09-12T13:23:33;8.05;;;8.05;;
73132;SDS011;61320;52.008;4.530;2023-09-12T13:26:00;7.74;;;7.74;;
73132;SDS011;61320;52.008;4.530;2023-09-12T13:28:26;7.41;;;7.41;;
73132;SDS011;61320;52.008;4.530;2023-09-12T13:30:54;7.68;;;7.68;;
73132;SDS011;61320;52.008;4.530;2023-09-12T13:33:20;7.63;;;7.63;;
73132;SDS011;61320;52.008;4.530;2023-09-12T13:35:47;7.92;;;7.92;;
73132;SDS011;61320;52.008;4.530;2023-09-12T13:38:14;8.57;;;8.57;;
73132;SDS011;61320;52.008;4.530;2023-09-12T13:40:44;9.50;;;9.50;;
73132;SDS011;61320;52.008;4.530;2023-09-12T13:43:11;9.98;;;9.98;;
73132;SDS011;61320;52.008;4.530;2023-09-12T13:45:37;10.01;;;10.01;;
73132;SDS011;61320;52.008;4.530;2023-09-12T13:48:04;9.20;;;9.20;;
73132;SDS011;61320;52.008;4.530;2023-09-12T13:50:31;7.43;;;7.43;;
73132;SDS011;61320;52.008;4.530;2023-09-12T13:52:57;7.20;;;7.20;;
73132;SDS011;61320;52.008;4.530;2023-09-12T13:55:33;8.46;;;8.46;;
73132;SDS011;61320;52.008;4.530;2023-09-12T13:58:01;9.14;;;9.14;;
73132;SDS011;61320;52.008;4.530;2023-09-12T14:00:27;9.08;;;9.08;;
73132;SDS011;61320;52.008;4.530;2023-09-12T14:02:53;8.57;;;8.57;;
73132;SDS011;61320;52.008;4.530;2023-09-12T14:05:18;8.60;;;8.60;;
73132;SDS011;61320;52.008;4.530;2023-09-12T14:07:44;8.20;;;8.20;;
73132;SDS011;61320;52.008;4.530;2023-09-12T14:10:09;7.92;;;7.92;;
73132;SDS011;61320;52.008;4.530;2023-09-12T14:12:35;31.52;;;24.67;;
73132;SDS011;61320;52.008;4.530;2023-09-12T14:15:00;80.99;;;51.36;;
73132;SDS011;61320;52.008;4.530;2023-09-12T14:17:26;24.40;;;18.25;;
73132;SDS011;61320;52.008;4.530;2023-09-12T14:19:53;14.11;;;12.84;;
73132;SDS011;61320;52.008;4.530;2023-09-12T14:22:19;12.58;;;12.17;;
73132;SDS011;61320;52.008;4.530;2023-09-12T14:24:44;10.68;;;10.68;;
73132;SDS011;61320;52.008;4.530;2023-09-12T14:27:09;10.05;;;10.05;;
73132;SDS011;61320;52.008;4.530;2023-09-12T14:29:35;10.26;;;10.26;;
73132;SDS011;61320;52.008;4.530;2023-09-12T14:32:00;10.04;;;10.04;;
73132;SDS011;61320;52.008;4.530;2023-09-12T14:34:26;9.66;;;9.66;;
73132;SDS011;61320;52.008;4.530;2023-09-12T14:36:55;10.00;;;10.00;;
73132;SDS011;61320;52.008;4.530;2023-09-12T14:39:22;9.69;;;9.69;;
73132;SDS011;61320;52.008;4.530;2023-09-12T14:41:47;10.25;;;10.25;;
73132;SDS011;61320;52.008;4.530;2023-09-12T14:46:49;10.50;;;10.50;;
73132;SDS011;61320;52.008;4.530;2023-09-12T14:49:15;9.99;;;9.99;;